sensor_id;sensor_type;location;lat;lon;timestamp;P1;durP1;ratioP1;P2;durP2;ratioP2
22357;SDS011;11346;50.150;8.150;2023-05-14T00:01:35;10.27;;;4.57;;
22357;SDS011;11346;50.150;8.150;2023-05-14T00:04:03;5.17;;;4.27;;
22357;SDS011;11346;50.150;8.150;2023-05-14T00:06:30;5.60;;;4.30;;
22357;SDS011;11346;50.150;8.150;2023-05-14T00:08:58;4.33;;;3.93;;
22357;SDS011;11346;50.150;8.150;2023-05-14T00:11:25;5.13;;;4.17;;
22357;SDS011;11346;50.150;8.150;2023-05-14T00:13:52;7.73;;;4.20;;
22357;SDS011;11346;50.150;8.150;2023-05-14T00:16:19;5.33;;;4.40;;
22357;SDS011;11346;50.150;8.150;2023-05-14T00:18:46;9.40;;;4.90;;
22357;SDS011;11346;50.150;8.150;2023-05-14T00:21:13;11.07;;;6.30;;
22357;SDS011;11346;50.150;8.150;2023-05-14T00:23:41;5.13;;;4.40;;
22357;SDS011;11346;50.150;8.150;2023-05-14T00:26:09;4.43;;;3.90;;
22357;SDS011;11346;50.150;8.150;2023-05-14T00:28:36;4.97;;;3.60;;
22357;SDS011;11346;50.150;8.150;2023-05-14T00:31:03;5.80;;;3.77;;
22357;SDS011;11346;50.150;8.150;2023-05-14T00:33:30;5.23;;;3.33;;
22357;SDS011;11346;50.150;8.150;2023-05-14T00:35:58;4.20;;;3.83;;
22357;SDS011;11346;50.150;8.150;2023-05-14T00:38:25;6.47;;;3.53;;
22357;SDS011;11346;50.150;8.150;2023-05-14T00:40:52;8.00;;;5.10;;
22357;SDS011;11346;50.150;8.150;2023-05-14T00:43:21;12.27;;;7.20;;
22357;SDS011;11346;50.150;8.150;2023-05-14T00:45:50;9.83;;;5.50;;
22357;SDS011;11346;50.150;8.150;2023-05-14T00:48:17;6.03;;;4.30;;
22357;SDS011;11346;50.150;8.150;2023-05-14T00:50:45;4.30;;;3.90;;
22357;SDS011;11346;50.150;8.150;2023-05-14T00:53:12;8.90;;;5.47;;
22357;SDS011;11346;50.150;8.150;2023-05-14T00:55:40;8.00;;;5.13;;
22357;SDS011;11346;50.150;8.150;2023-05-14T00:58:08;7.70;;;5.23;;
22357;SDS011;11346;50.150;8.150;2023-05-14T01:00:37;9.43;;;4.83;;
22357;SDS011;11346;50.150;8.150;2023-05-14T01:03:05;6.47;;;4.37;;
22357;SDS011;11346;50.150;8.150;2023-05-14T01:05:34;9.07;;;5.40;;
22357;SDS011;11346;50.150;8.150;2023-05-14T01:08:02;5.23;;;3.93;;
22357;SDS011;11346;50.150;8.150;2023-05-14T01:10:35;6.83;;;4.07;;
22357;SDS011;11346;50.150;8.150;2023-05-14T01:13:07;4.10;;;3.70;;
22357;SDS011;11346;50.150;8.150;2023-05-14T01:15:35;4.30;;;3.90;;
22357;SDS011;11346;50.150;8.150;2023-05-14T01:18:06;5.20;;;3.87;;
22357;SDS011;11346;50.150;8.150;2023-05-14T01:20:33;5.50;;;4.07;;
22357;SDS011;11346;50.150;8.150;2023-05-14T01:23:02;9.20;;;4.20;;
22357;SDS011;11346;50.150;8.150;2023-05-14T01:25:30;5.17;;;4.17;;
22357;SDS011;11346;50.150;8.150;2023-05-14T01:27:58;4.70;;;4.10;;
22357;SDS011;11346;50.150;8.150;2023-05-14T01:30:27;6.53;;;4.40;;
22357;SDS011;11346;50.150;8.150;2023-05-14T01:32:56;5.20;;;4.67;;
22357;SDS011;11346;50.150;8.150;2023-05-14T01:35:27;4.30;;;3.90;;
22357;SDS011;11346;50.150;8.150;2023-05-14T01:37:55;8.87;;;4.80;;
22357;SDS011;11346;50.150;8.150;2023-05-14T01:40:24;4.77;;;3.40;;
22357;SDS011;11346;50.150;8.150;2023-05-14T01:42:52;9.77;;;3.37;;
22357;SDS011;11346;50.150;8.150;2023-05-14T01:45:19;5.53;;;3.50;;
22357;SDS011;11346;50.150;8.150;2023-05-14T01:47:46;4.93;;;3.93;;
22357;SDS011;11346;50.150;8.150;2023-05-14T01:50:13;7.23;;;3.50;;
22357;SDS011;11346;50.150;8.150;2023-05-14T01:52:40;6.20;;;4.57;;
22357;SDS011;11346;50.150;8.150;2023-05-14T01:55:07;8.40;;;5.07;;
22357;SDS011;11346;50.150;8.150;2023-05-14T01:57:36;4.97;;;4.40;;
22357;SDS011;11346;50.150;8.150;2023-05-14T02:00:03;7.97;;;4.33;;
22357;SDS011;11346;50.150;8.150;2023-05-14T02:02:30;8.70;;;4.00;;
22357;SDS011;11346;50.150;8.150;2023-05-14T02:04:57;5.87;;;3.27;;
22357;SDS011;11346;50.150;8.150;2023-05-14T02:07:24;5.57;;;3.53;;
22357;SDS011;11346;50.150;8.150;2023-05-14T02:09:51;6.17;;;4.50;;
22357;SDS011;11346;50.150;8.150;2023-05-14T02:12:18;7.70;;;5.00;;
22357;SDS011;11346;50.150;8.150;2023-05-14T02:14:47;7.77;;;5.20;;
22357;SDS011;11346;50.150;8.150;2023-05-14T02:17:14;7.90;;;4.70;;
22357;SDS011;11346;50.150;8.150;2023-05-14T02:19:41;7.40;;;4.83;;
22357;SDS011;11346;50.150;8.150;2023-05-14T02:22:08;7.20;;;5.43;;
22357;SDS011;11346;50.150;8.150;2023-05-14T02:24:35;8.00;;;5.77;;
22357;SDS011;11346;50.150;8.150;2023-05-14T02:27:02;9.03;;;4.97;;
22357;SDS011;11346;50.150;8.150;2023-05-14T02:29:30;6.40;;;5.00;;
22357;SDS011;11346;50.150;8.150;2023-05-14T02:31:58;6.17;;;4.30;;
22357;SDS011;11346;50.150;8.150;2023-05-14T02:34:25;7.80;;;4.50;;
22357;SDS011;11346;50.150;8.150;2023-05-14T02:36:52;6.07;;;4.13;;
22357;SDS011;11346;50.150;8.150;2023-05-14T02:39:19;4.63;;;3.90;;
22357;SDS011;11346;50.150;8.150;2023-05-14T02:41:46;3.97;;;3.67;;
22357;SDS011;11346;50.150;8.150;2023-05-14T02:44:13;10.13;;;3.93;;
22357;SDS011;11346;50.150;8.150;2023-05-14T02:46:40;7.73;;;4.50;;
22357;SDS011;11346;50.150;8.150;2023-05-14T02:49:08;5.67;;;4.30;;
22357;SDS011;11346;50.150;8.150;2023-05-14T02:51:35;5.23;;;4.73;;
22357;SDS011;11346;50.150;8.150;2023-05-14T02:54:03;11.00;;;5.17;;
22357;SDS011;11346;50.150;8.150;2023-05-14T02:56:30;10.13;;;5.33;;
22357;SDS011;11346;50.150;8.150;2023-05-14T02:58:56;8.73;;;4.77;;
22357;SDS011;11346;50.150;8.150;2023-05-14T03:01:23;10.30;;;4.97;;
22357;SDS011;11346;50.150;8.150;2023-05-14T03:03:50;7.03;;;5.20;;
22357;SDS011;11346;50.150;8.150;2023-05-14T03:06:19;7.73;;;5.30;;
22357;SDS011;11346;50.150;8.150;2023-05-14T03:08:46;8.53;;;4.93;;
22357;SDS011;11346;50.150;8.150;2023-05-14T03:11:13;5.30;;;4.17;;
22357;SDS011;11346;50.150;8.150;2023-05-14T03:13:40;8.77;;;4.70;;
22357;SDS011;11346;50.150;8.150;2023-05-14T03:16:07;8.13;;;4.60;;
22357;SDS011;11346;50.150;8.150;2023-05-14T03:18:34;6.17;;;4.80;;
22357;SDS011;11346;50.150;8.150;2023-05-14T03:21:01;6.47;;;4.80;;
22357;SDS011;11346;50.150;8.150;2023-05-14T03:23:29;5.40;;;4.60;;
22357;SDS011;11346;50.150;8.150;2023-05-14T03:25:58;7.60;;;5.20;;
22357;SDS011;11346;50.150;8.150;2023-05-14T03:28:26;6.83;;;4.83;;
22357;SDS011;11346;50.150;8.150;2023-05-14T03:30:53;6.03;;;5.07;;
22357;SDS011;11346;50.150;8.150;2023-05-14T03:33:20;5.27;;;4.40;;
22357;SDS011;11346;50.150;8.150;2023-05-14T03:35:47;4.83;;;4.40;;
22357;SDS011;11346;50.150;8.150;2023-05-14T03:38:15;5.73;;;4.30;;
22357;SDS011;11346;50.150;8.150;2023-05-14T03:40:43;5.27;;;4.30;;
22357;SDS011;11346;50.150;8.150;2023-05-14T03:43:11;7.37;;;4.40;;
22357;SDS011;11346;50.150;8.150;2023-05-14T03:45:37;4.37;;;3.97;;
22357;SDS011;11346;50.150;8.150;2023-05-14T03:48:05;5.70;;;4.30;;
22357;SDS011;11346;50.150;8.150;2023-05-14T03:50:32;5.70;;;4.17;;
22357;SDS011;11346;50.150;8.150;2023-05-14T03:52:59;5.10;;;4.33;;
22357;SDS011;11346;50.150;8.150;2023-05-14T03:55:26;8.17;;;4.30;;
22357;SDS011;11346;50.150;8.150;2023-05-14T03:57:54;5.70;;;4.30;;
22357;SDS011;11346;50.150;8.150;2023-05-14T04:00:21;4.80;;;4.30;;
22357;SDS011;11346;50.150;8.150;2023-05-14T04:02:48;5.73;;;4.50;;
22357;SDS011;11346;50.150;8.150;2023-05-14T04:05:15;5.07;;;4.40;;
22357;SDS011;11346;50.150;8.150;2023-05-14T04:07:42;5.43;;;4.40;;
22357;SDS011;11346;50.150;8.150;2023-05-14T04:10:10;4.63;;;4.20;;
22357;SDS011;11346;50.150;8.150;2023-05-14T04:12:37;5.37;;;4.23;;
22357;SDS011;11346;50.150;8.150;2023-05-14T04:15:06;4.70;;;4.20;;
22357;SDS011;11346;50.150;8.150;2023-05-14T04:17:33;4.57;;;4.03;;
22357;SDS011;11346;50.150;8.150;2023-05-14T04:20:00;7.20;;;5.00;;
22357;SDS011;11346;50.150;8.150;2023-05-14T04:22:27;8.77;;;5.03;;
22357;SDS011;11346;50.150;8.150;2023-05-14T04:24:54;6.50;;;4.60;;
22357;SDS011;11346;50.150;8.150;2023-05-14T04:27:21;6.80;;;4.93;;
22357;SDS011;11346;50.150;8.150;2023-05-14T04:29:48;5.33;;;4.17;;
22357;SDS011;11346;50.150;8.150;2023-05-14T04:32:16;4.43;;;4.03;;
22357;SDS011;11346;50.150;8.150;2023-05-14T04:34:44;5.07;;;4.30;;
22357;SDS011;11346;50.150;8.150;2023-05-14T04:37:11;8.50;;;4.20;;
22357;SDS011;11346;50.150;8.150;2023-05-14T04:39:38;5.80;;;4.43;;
22357;SDS011;11346;50.150;8.150;2023-05-14T04:42:05;5.07;;;4.40;;
22357;SDS011;11346;50.150;8.150;2023-05-14T04:44:32;5.47;;;4.47;;
22357;SDS011;11346;50.150;8.150;2023-05-14T04:47:00;8.40;;;5.83;;
22357;SDS011;11346;50.150;8.150;2023-05-14T04:49:28;4.90;;;4.40;;
22357;SDS011;11346;50.150;8.150;2023-05-14T04:51:55;5.80;;;4.57;;
22357;SDS011;11346;50.150;8.150;2023-05-14T04:54:22;5.37;;;4.87;;
22357;SDS011;11346;50.150;8.150;2023-05-14T04:56:50;6.40;;;4.90;;
22357;SDS011;11346;50.150;8.150;2023-05-14T04:59:17;5.17;;;4.73;;
22357;SDS011;11346;50.150;8.150;2023-05-14T05:01:44;9.80;;;4.70;;
22357;SDS011;11346;50.150;8.150;2023-05-14T05:04:11;7.53;;;5.30;;
22357;SDS011;11346;50.150;8.150;2023-05-14T05:06:39;5.70;;;5.07;;
22357;SDS011;11346;50.150;8.150;2023-05-14T05:09:06;9.23;;;5.00;;
22357;SDS011;11346;50.150;8.150;2023-05-14T05:11:33;6.03;;;5.13;;
22357;SDS011;11346;50.150;8.150;2023-05-14T05:14:01;5.80;;;5.20;;
22357;SDS011;11346;50.150;8.150;2023-05-14T05:16:28;5.77;;;5.27;;
22357;SDS011;11346;50.150;8.150;2023-05-14T05:18:55;9.50;;;5.30;;
22357;SDS011;11346;50.150;8.150;2023-05-14T05:21:22;5.60;;;5.00;;
22357;SDS011;11346;50.150;8.150;2023-05-14T05:23:51;5.00;;;4.60;;
22357;SDS011;11346;50.150;8.150;2023-05-14T05:26:18;5.13;;;4.63;;
22357;SDS011;11346;50.150;8.150;2023-05-14T05:28:46;4.83;;;4.30;;
22357;SDS011;11346;50.150;8.150;2023-05-14T05:31:13;5.27;;;4.67;;
22357;SDS011;11346;50.150;8.150;2023-05-14T05:33:40;6.80;;;4.20;;
22357;SDS011;11346;50.150;8.150;2023-05-14T05:36:07;7.87;;;4.60;;
22357;SDS011;11346;50.150;8.150;2023-05-14T05:38:34;7.40;;;4.53;;
22357;SDS011;11346;50.150;8.150;2023-05-14T05:41:03;6.67;;;5.53;;
22357;SDS011;11346;50.150;8.150;2023-05-14T05:43:30;6.87;;;4.80;;
22357;SDS011;11346;50.150;8.150;2023-05-14T05:45:58;4.83;;;4.30;;
22357;SDS011;11346;50.150;8.150;2023-05-14T05:48:25;7.27;;;4.50;;
22357;SDS011;11346;50.150;8.150;2023-05-14T05:50:53;5.77;;;4.60;;
22357;SDS011;11346;50.150;8.150;2023-05-14T05:53:20;7.53;;;5.10;;
22357;SDS011;11346;50.150;8.150;2023-05-14T05:55:47;5.67;;;4.63;;
22357;SDS011;11346;50.150;8.150;2023-05-14T05:58:16;5.20;;;4.70;;
22357;SDS011;11346;50.150;8.150;2023-05-14T06:00:43;5.67;;;5.10;;
22357;SDS011;11346;50.150;8.150;2023-05-14T06:03:10;7.57;;;5.30;;
22357;SDS011;11346;50.150;8.150;2023-05-14T06:05:38;7.40;;;5.00;;
22357;SDS011;11346;50.150;8.150;2023-05-14T06:08:05;5.83;;;5.23;;
22357;SDS011;11346;50.150;8.150;2023-05-14T06:10:32;8.00;;;5.43;;
22357;SDS011;11346;50.150;8.150;2023-05-14T06:13:00;5.97;;;5.33;;
22357;SDS011;11346;50.150;8.150;2023-05-14T06:15:28;6.77;;;5.50;;
22357;SDS011;11346;50.150;8.150;2023-05-14T06:17:55;8.87;;;5.70;;
22357;SDS011;11346;50.150;8.150;2023-05-14T06:20:22;7.03;;;5.97;;
22357;SDS011;11346;50.150;8.150;2023-05-14T06:22:49;8.17;;;6.20;;
22357;SDS011;11346;50.150;8.150;2023-05-14T06:25:16;7.00;;;5.23;;
22357;SDS011;11346;50.150;8.150;2023-05-14T06:27:43;6.73;;;5.37;;
22357;SDS011;11346;50.150;8.150;2023-05-14T06:30:11;7.13;;;4.97;;
22357;SDS011;11346;50.150;8.150;2023-05-14T06:32:39;5.70;;;5.20;;
22357;SDS011;11346;50.150;8.150;2023-05-14T06:35:06;6.50;;;5.43;;
22357;SDS011;11346;50.150;8.150;2023-05-14T06:37:33;9.13;;;5.60;;
22357;SDS011;11346;50.150;8.150;2023-05-14T06:40:00;7.80;;;5.50;;
22357;SDS011;11346;50.150;8.150;2023-05-14T06:42:27;7.70;;;4.97;;
22357;SDS011;11346;50.150;8.150;2023-05-14T06:44:54;10.17;;;5.47;;
22357;SDS011;11346;50.150;8.150;2023-05-14T06:47:22;5.93;;;5.30;;
22357;SDS011;11346;50.150;8.150;2023-05-14T06:49:50;8.30;;;5.87;;
22357;SDS011;11346;50.150;8.150;2023-05-14T06:52:17;6.37;;;5.47;;
22357;SDS011;11346;50.150;8.150;2023-05-14T06:54:44;7.93;;;6.07;;
22357;SDS011;11346;50.150;8.150;2023-05-14T06:57:11;7.33;;;5.87;;
22357;SDS011;11346;50.150;8.150;2023-05-14T06:59:38;10.23;;;5.90;;
22357;SDS011;11346;50.150;8.150;2023-05-14T07:02:05;15.03;;;6.43;;
22357;SDS011;11346;50.150;8.150;2023-05-14T07:04:32;7.37;;;5.90;;
22357;SDS011;11346;50.150;8.150;2023-05-14T07:07:01;6.07;;;5.47;;
22357;SDS011;11346;50.150;8.150;2023-05-14T07:09:29;8.23;;;5.83;;
22357;SDS011;11346;50.150;8.150;2023-05-14T07:11:56;6.50;;;5.17;;
22357;SDS011;11346;50.150;8.150;2023-05-14T07:14:23;8.50;;;5.07;;
22357;SDS011;11346;50.150;8.150;2023-05-14T07:16:50;7.10;;;4.73;;
22357;SDS011;11346;50.150;8.150;2023-05-14T07:19:17;7.37;;;5.00;;
22357;SDS011;11346;50.150;8.150;2023-05-14T07:21:46;4.70;;;4.30;;
22357;SDS011;11346;50.150;8.150;2023-05-14T07:24:14;5.70;;;3.90;;
22357;SDS011;11346;50.150;8.150;2023-05-14T07:26:41;5.13;;;4.10;;
22357;SDS011;11346;50.150;8.150;2023-05-14T07:29:08;4.03;;;3.60;;
22357;SDS011;11346;50.150;8.150;2023-05-14T07:31:35;4.03;;;3.60;;
22357;SDS011;11346;50.150;8.150;2023-05-14T07:34:02;5.00;;;4.03;;
22357;SDS011;11346;50.150;8.150;2023-05-14T07:36:29;4.20;;;3.80;;
22357;SDS011;11346;50.150;8.150;2023-05-14T07:38:56;3.70;;;3.40;;
22357;SDS011;11346;50.150;8.150;2023-05-14T07:41:24;4.50;;;3.80;;
22357;SDS011;11346;50.150;8.150;2023-05-14T07:43:51;4.77;;;4.00;;
22357;SDS011;11346;50.150;8.150;2023-05-14T07:46:18;4.37;;;3.63;;
22357;SDS011;11346;50.150;8.150;2023-05-14T07:48:45;6.57;;;3.57;;
22357;SDS011;11346;50.150;8.150;2023-05-14T07:51:12;4.20;;;3.73;;
22357;SDS011;11346;50.150;8.150;2023-05-14T07:53:39;6.37;;;3.70;;
22357;SDS011;11346;50.150;8.150;2023-05-14T07:56:07;4.90;;;3.73;;
22357;SDS011;11346;50.150;8.150;2023-05-14T07:58:35;4.63;;;3.80;;
22357;SDS011;11346;50.150;8.150;2023-05-14T08:01:02;5.17;;;3.80;;
22357;SDS011;11346;50.150;8.150;2023-05-14T08:03:31;4.83;;;3.37;;
22357;SDS011;11346;50.150;8.150;2023-05-14T08:05:58;3.90;;;3.50;;
22357;SDS011;11346;50.150;8.150;2023-05-14T08:08:25;4.77;;;4.20;;
22357;SDS011;11346;50.150;8.150;2023-05-14T08:10:52;4.20;;;3.80;;
22357;SDS011;11346;50.150;8.150;2023-05-14T08:13:19;4.47;;;4.07;;
22357;SDS011;11346;50.150;8.150;2023-05-14T08:15:48;4.03;;;3.63;;
22357;SDS011;11346;50.150;8.150;2023-05-14T08:18:15;3.90;;;3.60;;
22357;SDS011;11346;50.150;8.150;2023-05-14T08:20:42;3.77;;;3.40;;
22357;SDS011;11346;50.150;8.150;2023-05-14T08:23:09;3.90;;;3.50;;
22357;SDS011;11346;50.150;8.150;2023-05-14T08:25:36;4.90;;;3.60;;
22357;SDS011;11346;50.150;8.150;2023-05-14T08:28:03;3.77;;;3.47;;
22357;SDS011;11346;50.150;8.150;2023-05-14T08:30:30;4.03;;;3.73;;
22357;SDS011;11346;50.150;8.150;2023-05-14T08:32:58;4.93;;;3.50;;
22357;SDS011;11346;50.150;8.150;2023-05-14T08:35:25;3.47;;;3.17;;
22357;SDS011;11346;50.150;8.150;2023-05-14T08:37:52;4.57;;;3.50;;
22357;SDS011;11346;50.150;8.150;2023-05-14T08:40:20;3.73;;;3.17;;
22357;SDS011;11346;50.150;8.150;2023-05-14T08:42:47;3.50;;;3.27;;
22357;SDS011;11346;50.150;8.150;2023-05-14T08:45:17;4.33;;;3.63;;
22357;SDS011;11346;50.150;8.150;2023-05-14T08:47:44;4.57;;;3.53;;
22357;SDS011;11346;50.150;8.150;2023-05-14T08:50:14;3.60;;;3.30;;
22357;SDS011;11346;50.150;8.150;2023-05-14T08:52:41;3.60;;;3.10;;
22357;SDS011;11346;50.150;8.150;2023-05-14T08:55:09;3.50;;;3.20;;
22357;SDS011;11346;50.150;8.150;2023-05-14T08:57:37;3.20;;;2.90;;
22357;SDS011;11346;50.150;8.150;2023-05-14T09:00:05;3.80;;;3.27;;
22357;SDS011;11346;50.150;8.150;2023-05-14T09:02:35;3.30;;;3.10;;
22357;SDS011;11346;50.150;8.150;2023-05-14T09:05:03;3.20;;;2.90;;
22357;SDS011;11346;50.150;8.150;2023-05-14T09:07:32;3.30;;;3.00;;
22357;SDS011;11346;50.150;8.150;2023-05-14T09:10:00;4.50;;;3.73;;
22357;SDS011;11346;50.150;8.150;2023-05-14T09:12:27;3.80;;;3.50;;
22357;SDS011;11346;50.150;8.150;2023-05-14T09:14:55;4.93;;;3.20;;
22357;SDS011;11346;50.150;8.150;2023-05-14T09:17:23;2.90;;;2.70;;
22357;SDS011;11346;50.150;8.150;2023-05-14T09:19:51;2.93;;;2.73;;
22357;SDS011;11346;50.150;8.150;2023-05-14T09:22:18;3.00;;;2.80;;
22357;SDS011;11346;50.150;8.150;2023-05-14T09:24:47;3.03;;;2.60;;
22357;SDS011;11346;50.150;8.150;2023-05-14T09:27:28;3.13;;;2.83;;
22357;SDS011;11346;50.150;8.150;2023-05-14T09:29:55;3.80;;;3.40;;
22357;SDS011;11346;50.150;8.150;2023-05-14T09:32:22;3.60;;;3.30;;
22357;SDS011;11346;50.150;8.150;2023-05-14T09:34:49;3.57;;;3.27;;
22357;SDS011;11346;50.150;8.150;2023-05-14T09:37:16;3.57;;;3.10;;
22357;SDS011;11346;50.150;8.150;2023-05-14T09:39:43;2.77;;;2.57;;
22357;SDS011;11346;50.150;8.150;2023-05-14T09:42:11;2.87;;;2.60;;
22357;SDS011;11346;50.150;8.150;2023-05-14T09:44:38;3.63;;;2.73;;
22357;SDS011;11346;50.150;8.150;2023-05-14T09:47:05;3.47;;;3.20;;
22357;SDS011;11346;50.150;8.150;2023-05-14T09:49:32;4.80;;;3.07;;
22357;SDS011;11346;50.150;8.150;2023-05-14T09:51:59;2.80;;;2.60;;
22357;SDS011;11346;50.150;8.150;2023-05-14T09:54:27;2.70;;;2.50;;
22357;SDS011;11346;50.150;8.150;2023-05-14T09:56:54;2.93;;;2.70;;
22357;SDS011;11346;50.150;8.150;2023-05-14T09:59:22;2.87;;;2.67;;
22357;SDS011;11346;50.150;8.150;2023-05-14T10:01:49;3.00;;;2.70;;
22357;SDS011;11346;50.150;8.150;2023-05-14T10:04:18;3.37;;;2.60;;
22357;SDS011;11346;50.150;8.150;2023-05-14T10:06:45;3.30;;;2.70;;
22357;SDS011;11346;50.150;8.150;2023-05-14T10:09:13;4.57;;;2.63;;
22357;SDS011;11346;50.150;8.150;2023-05-14T10:11:42;3.63;;;2.53;;
22357;SDS011;11346;50.150;8.150;2023-05-14T10:14:12;4.80;;;2.30;;
22357;SDS011;11346;50.150;8.150;2023-05-14T10:16:46;3.23;;;2.60;;
22357;SDS011;11346;50.150;8.150;2023-05-14T10:19:14;2.67;;;2.47;;
22357;SDS011;11346;50.150;8.150;2023-05-14T10:21:43;2.73;;;2.30;;
22357;SDS011;11346;50.150;8.150;2023-05-14T10:24:10;3.17;;;2.97;;
22357;SDS011;11346;50.150;8.150;2023-05-14T10:26:38;2.60;;;2.40;;
22357;SDS011;11346;50.150;8.150;2023-05-14T10:29:06;2.80;;;2.60;;
22357;SDS011;11346;50.150;8.150;2023-05-14T10:31:44;2.80;;;2.53;;
22357;SDS011;11346;50.150;8.150;2023-05-14T10:36:54;2.50;;;2.40;;
22357;SDS011;11346;50.150;8.150;2023-05-14T10:39:34;2.60;;;2.40;;
22357;SDS011;11346;50.150;8.150;2023-05-14T10:42:05;3.07;;;2.77;;
22357;SDS011;11346;50.150;8.150;2023-05-14T10:44:32;3.10;;;2.90;;
22357;SDS011;11346;50.150;8.150;2023-05-14T10:47:02;2.97;;;2.77;;
22357;SDS011;11346;50.150;8.150;2023-05-14T10:49:29;3.03;;;2.73;;
22357;SDS011;11346;50.150;8.150;2023-05-14T10:51:56;2.60;;;2.40;;
22357;SDS011;11346;50.150;8.150;2023-05-14T10:54:23;3.40;;;2.60;;
22357;SDS011;11346;50.150;8.150;2023-05-14T10:56:53;3.10;;;2.90;;
22357;SDS011;11346;50.150;8.150;2023-05-14T10:59:23;2.93;;;2.67;;
22357;SDS011;11346;50.150;8.150;2023-05-14T11:01:51;3.07;;;2.77;;
22357;SDS011;11346;50.150;8.150;2023-05-14T11:04:19;2.73;;;2.53;;
22357;SDS011;11346;50.150;8.150;2023-05-14T11:06:48;4.03;;;2.90;;
22357;SDS011;11346;50.150;8.150;2023-05-14T11:09:17;4.03;;;3.00;;
22357;SDS011;11346;50.150;8.150;2023-05-14T11:11:46;3.77;;;2.90;;
22357;SDS011;11346;50.150;8.150;2023-05-14T11:14:13;3.67;;;2.70;;
22357;SDS011;11346;50.150;8.150;2023-05-14T11:16:40;3.00;;;2.70;;
22357;SDS011;11346;50.150;8.150;2023-05-14T11:19:07;3.30;;;2.73;;
22357;SDS011;11346;50.150;8.150;2023-05-14T11:21:36;2.87;;;2.67;;
22357;SDS011;11346;50.150;8.150;2023-05-14T11:24:03;6.07;;;2.63;;
22357;SDS011;11346;50.150;8.150;2023-05-14T11:26:31;2.90;;;2.70;;
22357;SDS011;11346;50.150;8.150;2023-05-14T11:28:58;5.90;;;2.90;;
22357;SDS011;11346;50.150;8.150;2023-05-14T11:31:25;2.47;;;2.30;;
22357;SDS011;11346;50.150;8.150;2023-05-14T11:33:53;3.10;;;2.23;;
22357;SDS011;11346;50.150;8.150;2023-05-14T11:36:20;4.17;;;2.33;;
22357;SDS011;11346;50.150;8.150;2023-05-14T11:38:49;2.50;;;2.30;;
22357;SDS011;11346;50.150;8.150;2023-05-14T11:41:16;2.43;;;2.30;;
22357;SDS011;11346;50.150;8.150;2023-05-14T11:43:45;2.43;;;2.20;;
22357;SDS011;11346;50.150;8.150;2023-05-14T11:46:15;2.23;;;2.10;;
22357;SDS011;11346;50.150;8.150;2023-05-14T11:48:43;2.27;;;2.13;;
22357;SDS011;11346;50.150;8.150;2023-05-14T11:51:10;2.33;;;2.20;;
22357;SDS011;11346;50.150;8.150;2023-05-14T11:53:37;2.23;;;2.10;;
22357;SDS011;11346;50.150;8.150;2023-05-14T11:56:06;2.50;;;2.27;;
22357;SDS011;11346;50.150;8.150;2023-05-14T11:58:33;2.40;;;2.20;;
22357;SDS011;11346;50.150;8.150;2023-05-14T12:01:00;2.67;;;2.43;;
22357;SDS011;11346;50.150;8.150;2023-05-14T12:03:27;2.70;;;2.50;;
22357;SDS011;11346;50.150;8.150;2023-05-14T12:05:55;2.67;;;2.50;;
22357;SDS011;11346;50.150;8.150;2023-05-14T12:08:24;2.23;;;2.13;;
22357;SDS011;11346;50.150;8.150;2023-05-14T12:10:52;2.80;;;2.60;;
22357;SDS011;11346;50.150;8.150;2023-05-14T12:13:20;2.43;;;2.30;;
22357;SDS011;11346;50.150;8.150;2023-05-14T12:15:52;2.73;;;2.53;;
22357;SDS011;11346;50.150;8.150;2023-05-14T12:18:20;3.43;;;2.40;;
22357;SDS011;11346;50.150;8.150;2023-05-14T12:20:47;2.63;;;2.43;;
22357;SDS011;11346;50.150;8.150;2023-05-14T12:23:15;3.33;;;2.53;;
22357;SDS011;11346;50.150;8.150;2023-05-14T12:25:48;2.43;;;2.23;;
22357;SDS011;11346;50.150;8.150;2023-05-14T12:28:15;3.17;;;2.70;;
22357;SDS011;11346;50.150;8.150;2023-05-14T12:30:44;2.53;;;2.33;;
22357;SDS011;11346;50.150;8.150;2023-05-14T12:33:11;2.50;;;2.30;;
22357;SDS011;11346;50.150;8.150;2023-05-14T12:35:38;4.37;;;2.30;;
22357;SDS011;11346;50.150;8.150;2023-05-14T12:38:05;2.60;;;2.40;;
22357;SDS011;11346;50.150;8.150;2023-05-14T12:40:32;2.50;;;2.37;;
22357;SDS011;11346;50.150;8.150;2023-05-14T12:43:00;2.77;;;2.53;;
22357;SDS011;11346;50.150;8.150;2023-05-14T12:45:28;3.83;;;2.20;;
22357;SDS011;11346;50.150;8.150;2023-05-14T12:47:57;3.57;;;2.47;;
22357;SDS011;11346;50.150;8.150;2023-05-14T12:50:24;2.47;;;2.33;;
22357;SDS011;11346;50.150;8.150;2023-05-14T12:52:51;2.90;;;2.30;;
22357;SDS011;11346;50.150;8.150;2023-05-14T12:55:18;7.90;;;2.40;;
22357;SDS011;11346;50.150;8.150;2023-05-14T12:57:45;2.13;;;2.03;;
22357;SDS011;11346;50.150;8.150;2023-05-14T13:00:12;2.37;;;2.13;;
22357;SDS011;11346;50.150;8.150;2023-05-14T13:02:39;2.90;;;2.13;;
22357;SDS011;11346;50.150;8.150;2023-05-14T13:05:08;2.33;;;2.20;;
22357;SDS011;11346;50.150;8.150;2023-05-14T13:07:35;4.10;;;2.13;;
22357;SDS011;11346;50.150;8.150;2023-05-14T13:10:02;2.60;;;2.37;;
22357;SDS011;11346;50.150;8.150;2023-05-14T13:12:30;3.83;;;2.30;;
22357;SDS011;11346;50.150;8.150;2023-05-14T13:14:57;2.47;;;2.27;;
22357;SDS011;11346;50.150;8.150;2023-05-14T13:17:24;2.33;;;2.10;;
22357;SDS011;11346;50.150;8.150;2023-05-14T13:19:51;2.43;;;2.10;;
22357;SDS011;11346;50.150;8.150;2023-05-14T13:22:19;2.20;;;2.10;;
22357;SDS011;11346;50.150;8.150;2023-05-14T13:24:46;2.97;;;2.30;;
22357;SDS011;11346;50.150;8.150;2023-05-14T13:27:13;2.30;;;2.10;;
22357;SDS011;11346;50.150;8.150;2023-05-14T13:29:40;2.07;;;1.97;;
22357;SDS011;11346;50.150;8.150;2023-05-14T13:32:08;2.67;;;2.30;;
22357;SDS011;11346;50.150;8.150;2023-05-14T13:34:35;2.40;;;2.20;;
22357;SDS011;11346;50.150;8.150;2023-05-14T13:37:02;2.77;;;2.57;;
22357;SDS011;11346;50.150;8.150;2023-05-14T13:39:30;2.63;;;2.40;;
22357;SDS011;11346;50.150;8.150;2023-05-14T13:41:57;3.47;;;2.17;;
22357;SDS011;11346;50.150;8.150;2023-05-14T13:44:25;2.77;;;2.60;;
22357;SDS011;11346;50.150;8.150;2023-05-14T13:46:52;2.33;;;2.20;;
22357;SDS011;11346;50.150;8.150;2023-05-14T13:49:19;2.77;;;2.10;;
22357;SDS011;11346;50.150;8.150;2023-05-14T13:51:46;2.87;;;2.37;;
22357;SDS011;11346;50.150;8.150;2023-05-14T13:54:13;2.17;;;2.07;;
22357;SDS011;11346;50.150;8.150;2023-05-14T13:56:41;4.27;;;2.23;;
22357;SDS011;11346;50.150;8.150;2023-05-14T13:59:08;2.60;;;2.40;;
22357;SDS011;11346;50.150;8.150;2023-05-14T14:01:35;2.40;;;2.20;;
22357;SDS011;11346;50.150;8.150;2023-05-14T14:04:02;2.37;;;2.27;;
22357;SDS011;11346;50.150;8.150;2023-05-14T14:06:30;2.50;;;2.30;;
22357;SDS011;11346;50.150;8.150;2023-05-14T14:08:57;2.17;;;2.07;;
22357;SDS011;11346;50.150;8.150;2023-05-14T14:11:24;2.23;;;2.03;;
22357;SDS011;11346;50.150;8.150;2023-05-14T14:13:52;2.40;;;2.20;;
22357;SDS011;11346;50.150;8.150;2023-05-14T14:16:19;2.73;;;2.23;;
22357;SDS011;11346;50.150;8.150;2023-05-14T14:18:46;2.33;;;2.13;;
22357;SDS011;11346;50.150;8.150;2023-05-14T14:21:13;2.40;;;2.30;;
22357;SDS011;11346;50.150;8.150;2023-05-14T14:23:42;2.90;;;2.70;;
22357;SDS011;11346;50.150;8.150;2023-05-14T14:26:09;3.77;;;2.33;;
22357;SDS011;11346;50.150;8.150;2023-05-14T14:28:35;2.60;;;2.40;;
22357;SDS011;11346;50.150;8.150;2023-05-14T14:31:05;2.40;;;2.30;;
22357;SDS011;11346;50.150;8.150;2023-05-14T14:33:32;2.80;;;2.60;;
22357;SDS011;11346;50.150;8.150;2023-05-14T14:35:59;3.10;;;2.17;;
22357;SDS011;11346;50.150;8.150;2023-05-14T14:38:26;3.77;;;2.47;;
22357;SDS011;11346;50.150;8.150;2023-05-14T14:40:53;2.90;;;2.47;;
22357;SDS011;11346;50.150;8.150;2023-05-14T14:43:20;4.53;;;2.40;;
22357;SDS011;11346;50.150;8.150;2023-05-14T14:45:47;2.40;;;2.30;;
22357;SDS011;11346;50.150;8.150;2023-05-14T14:48:22;2.83;;;2.63;;
22357;SDS011;11346;50.150;8.150;2023-05-14T14:50:49;3.00;;;2.17;;
22357;SDS011;11346;50.150;8.150;2023-05-14T14:53:17;2.63;;;2.43;;